Time;durP1;ratioP1;P1;durP2;ratioP2;P2;SDS_P1;SDS_P2;PMS_P1;PMS_P2;Temp;Humidity;BMP_temperature;BMP_pressure;BME280_temperature;BME280_humidity;BME280_pressure;Samples;Min_cycle;Max_cycle;Signal;HPM_P1;HPM_P2
2023/05/12 00:00:43;;;;;;;;;;;18.70;65.10;;;;;;5094318;28;20371;-70
2023/05/12 00:03:08;;;;;;;;;;;18.70;65.10;;;;;;5112506;28;19924;-70
2023/05/12 00:05:34;;;;;;;;;;;18.70;65.20;;;;;;5094517;28;19920;-70
2023/05/12 00:07:59;;;;;;;;;;;18.70;65.10;;;;;;5094539;28;20014;-70
2023/05/12 00:10:26;;;;;;;;;;;18.70;65.20;;;;;;5093985;28;20390;-70
2023/05/12 00:12:51;;;;;;;;;;;18.70;65.20;;;;;;5093761;28;19927;-70
2023/05/12 00:15:18;;;;;;;;;;;18.70;65.20;;;;;;5112234;28;19919;-69
2023/05/12 00:17:44;;;;;;;;;;;18.70;65.20;;;;;;5094555;28;20275;-70
2023/05/12 00:20:10;;;;;;;;;;;18.70;65.20;;;;;;5094279;28;19920;-70
2023/05/12 00:22:36;;;;;;;;;;;18.70;65.20;;;;;;5094437;28;19931;-70
2023/05/12 00:25:01;;;;;;;;;;;18.70;65.20;;;;;;5093929;28;19923;-70
2023/05/12 00:27:28;;;;;;;;;;;18.70;65.30;;;;;;5094454;28;19919;-70
2023/05/12 00:29:53;;;;;;;;;;;18.70;65.20;;;;;;5112273;28;19998;-70
2023/05/12 00:32:19;;;;;;;;;;;18.70;65.30;;;;;;5112233;28;20459;-70
2023/05/12 00:34:44;;;;;;;;;;;18.60;65.20;;;;;;5112108;28;19924;-70
2023/05/12 00:37:10;;;;;;;;;;;18.60;65.20;;;;;;5094271;28;19924;-70
2023/05/12 00:39:36;;;;;;;;;;;18.60;65.20;;;;;;5093845;28;19946;-70
2023/05/12 00:42:02;;;;;;;;;;;18.60;65.30;;;;;;5094060;28;19966;-70
2023/05/12 00:44:27;;;;;;;;;;;18.60;65.30;;;;;;5093657;28;20347;-70
2023/05/12 00:46:54;;;;;;;;;;;18.60;65.30;;;;;;5093915;28;20383;-70
2023/05/12 00:49:19;;;;;;;;;;;18.60;65.30;;;;;;5094149;28;19956;-70
2023/05/12 00:51:45;;;;;;;;;;;18.60;65.40;;;;;;5095939;28;20375;-70
2023/05/12 00:54:10;;;;;;;;;;;18.60;65.20;;;;;;5097537;28;19927;-70
2023/05/12 00:56:39;;;;;;;;;;;18.60;65.30;;;;;;5097740;28;19926;-70
2023/05/12 00:59:05;;;;;;;;;;;18.60;65.30;;;;;;5115678;28;20327;-70
2023/05/12 01:01:31;;;;;;;;;;;18.60;65.30;;;;;;5097758;28;20018;-70
2023/05/12 01:03:57;;;;;;;;;;;18.60;65.30;;;;;;5115480;28;19934;-70
2023/05/12 01:06:27;;;;;;;;;;;18.60;65.30;;;;;;5097514;28;20010;-71
2023/05/12 01:08:53;;;;;;;;;;;18.60;65.30;;;;;;5097204;28;19980;-70
2023/05/12 01:11:18;;;;;;;;;;;18.60;65.30;;;;;;5097395;28;19920;-70
2023/05/12 01:13:44;;;;;;;;;;;18.60;65.30;;;;;;5097539;28;19920;-71
2023/05/12 01:16:12;;;;;;;;;;;18.60;65.30;;;;;;5097003;28;19920;-70
2023/05/12 01:18:39;;;;;;;;;;;18.50;65.30;;;;;;5097515;28;19945;-70
2023/05/12 01:21:04;;;;;;;;;;;18.50;65.30;;;;;;5097121;28;19920;-71
2023/05/12 01:23:34;;;;;;;;;;;18.50;65.30;;;;;;5115123;28;19923;-70
2023/05/12 01:26:02;;;;;;;;;;;18.50;65.30;;;;;;5097227;28;20263;-70
2023/05/12 01:28:28;;;;;;;;;;;18.50;65.30;;;;;;5097206;28;19926;-71
2023/05/12 01:30:53;;;;;;;;;;;18.50;65.30;;;;;;5096656;28;19928;-70
2023/05/12 01:33:19;;;;;;;;;;;18.50;65.30;;;;;;5115070;28;19920;-70
2023/05/12 01:35:45;;;;;;;;;;;18.50;65.40;;;;;;5096711;28;19927;-71
2023/05/12 01:38:10;;;;;;;;;;;18.50;65.40;;;;;;5097049;28;19924;-71
2023/05/12 01:40:36;;;;;;;;;;;18.50;65.40;;;;;;5096697;28;20302;-71
2023/05/12 01:43:01;;;;;;;;;;;18.50;65.40;;;;;;5096355;28;19923;-71
2023/05/12 01:45:26;;;;;;;;;;;18.50;65.40;;;;;;5096468;28;20349;-71
2023/05/12 01:47:52;;;;;;;;;;;18.50;65.40;;;;;;5114753;28;19930;-70
2023/05/12 01:50:17;;;;;;;;;;;18.50;65.40;;;;;;5114763;28;19920;-70
2023/05/12 01:52:44;;;;;;;;;;;18.50;65.30;;;;;;5096181;28;20401;-71
2023/05/12 01:55:10;;;;;;;;;;;18.50;65.40;;;;;;5096630;28;20363;-70
2023/05/12 01:57:35;;;;;;;;;;;18.50;65.30;;;;;;5114572;28;19930;-70
2023/05/12 02:00:01;;;;;;;;;;;18.50;65.40;;;;;;5096518;28;19920;-70
2023/05/12 02:02:27;;;;;;;;;;;18.50;65.40;;;;;;5096530;28;20437;-71
2023/05/12 02:04:52;;;;;;;;;;;18.40;65.30;;;;;;5096070;28;20032;-70
2023/05/12 02:07:17;;;;;;;;;;;18.50;65.40;;;;;;5096131;28;19975;-71
2023/05/12 02:09:43;;;;;;;;;;;18.50;65.40;;;;;;5114268;28;19931;-71
2023/05/12 02:12:08;;;;;;;;;;;18.50;65.40;;;;;;5114337;28;19965;-71
2023/05/12 02:14:34;;;;;;;;;;;18.40;65.30;;;;;;5095921;28;19959;-71
2023/05/12 02:16:59;;;;;;;;;;;18.50;65.40;;;;;;5096254;28;19920;-71
2023/05/12 02:19:25;;;;;;;;;;;18.40;65.30;;;;;;5096041;28;19969;-72
2023/05/12 02:21:50;;;;;;;;;;;18.40;65.30;;;;;;5096203;28;19919;-71
2023/05/12 02:24:16;;;;;;;;;;;18.40;65.40;;;;;;5095634;28;19926;-71
2023/05/12 02:26:41;;;;;;;;;;;18.40;65.30;;;;;;5096200;28;19924;-71
2023/05/12 02:29:07;;;;;;;;;;;18.40;65.30;;;;;;5114027;28;19924;-71
2023/05/12 02:31:32;;;;;;;;;;;18.40;65.40;;;;;;5095584;28;19923;-71
2023/05/12 02:33:58;;;;;;;;;;;18.40;65.30;;;;;;5095631;28;20006;-71
2023/05/12 02:36:24;;;;;;;;;;;18.60;65.30;;;;;;5095019;28;19920;-71
2023/05/12 02:38:49;;;;;;;;;;;18.90;64.90;;;;;;5095835;28;19926;-71
2023/05/12 02:41:14;;;;;;;;;;;19.20;64.30;;;;;;5095304;28;19971;-71
2023/05/12 02:43:40;;;;;;;;;;;19.60;63.50;;;;;;5095293;28;19924;-70
2023/05/12 02:46:05;;;;;;;;;;;20.20;62.40;;;;;;5095639;28;20011;-71
2023/05/12 02:48:31;;;;;;;;;;;20.80;60.70;;;;;;5095748;28;20356;-70
2023/05/12 02:50:57;;;;;;;;;;;21.40;59.10;;;;;;5095164;28;19919;-70
2023/05/12 02:53:22;;;;;;;;;;;22.00;57.80;;;;;;5095445;28;19923;-70
2023/05/12 02:55:48;;;;;;;;;;;22.50;56.60;;;;;;5095002;28;20484;-70
2023/05/12 02:58:13;;;;;;;;;;;23.00;55.50;;;;;;5095256;28;20048;-71
2023/05/12 03:00:39;;;;;;;;;;;23.30;54.60;;;;;;5095049;28;19920;-71
2023/05/12 03:03:04;;;;;;;;;;;23.50;54.00;;;;;;5095359;28;19927;-71
2023/05/12 03:05:30;;;;;;;;;;;23.60;53.40;;;;;;5094439;28;19973;-71
2023/05/12 03:07:55;;;;;;;;;;;23.70;53.20;;;;;;5094809;28;19920;-72
2023/05/12 03:10:21;;;;;;;;;;;23.70;53.10;;;;;;5095158;28;19926;-71
2023/05/12 03:12:46;;;;;;;;;;;23.60;53.00;;;;;;5094896;28;19924;-71
2023/05/12 03:15:12;;;;;;;;;;;23.50;53.10;;;;;;5094631;28;19924;-72
2023/05/12 03:17:38;;;;;;;;;;;23.40;53.30;;;;;;5094882;28;19920;-72
2023/05/12 03:20:04;;;;;;;;;;;23.20;53.50;;;;;;5094970;28;19977;-72
2023/05/12 03:22:29;;;;;;;;;;;23.00;53.70;;;;;;5094791;28;19962;-71
2023/05/12 03:24:55;;;;;;;;;;;22.90;54.10;;;;;;5094591;28;19931;-72
2023/05/12 03:27:20;;;;;;;;;;;22.70;54.40;;;;;;5094746;28;20314;-71
2023/05/12 03:29:46;;;;;;;;;;;22.60;54.70;;;;;;5094912;28;19973;-72
2023/05/12 03:32:12;;;;;;;;;;;22.40;55.10;;;;;;5094477;28;20294;-71
2023/05/12 03:34:37;;;;;;;;;;;22.20;55.30;;;;;;5094952;28;19919;-71
2023/05/12 03:37:03;;;;;;;;;;;22.10;55.60;;;;;;5112682;28;19926;-71
2023/05/12 03:39:31;;;;;;;;;;;21.90;55.90;;;;;;5094952;28;19943;-71
2023/05/12 03:41:57;;;;;;;;;;;21.80;56.20;;;;;;5112653;28;19927;-71
2023/05/12 03:44:22;;;;;;;;;;;21.60;56.50;;;;;;5112399;28;19924;-71
2023/05/12 03:46:48;;;;;;;;;;;21.60;56.90;;;;;;5094413;28;19959;-71
2023/05/12 03:49:13;;;;;;;;;;;21.40;57.10;;;;;;5112821;28;19966;-71
2023/05/12 03:51:38;;;;;;;;;;;21.30;57.30;;;;;;5094311;28;20426;-72
2023/05/12 03:54:04;;;;;;;;;;;21.20;57.60;;;;;;5094770;28;19972;-72
2023/05/12 03:56:30;;;;;;;;;;;21.10;57.80;;;;;;5094434;28;20355;-71
2023/05/12 03:58:56;;;;;;;;;;;21.00;57.90;;;;;;5094742;28;19988;-71
2023/05/12 04:01:21;;;;;;;;;;;21.00;58.00;;;;;;5094193;28;19920;-71
2023/05/12 04:03:47;;;;;;;;;;;21.10;57.90;;;;;;5094451;28;20034;-71
2023/05/12 04:06:12;;;;;;;;;;;21.20;57.80;;;;;;5094205;28;19937;-72
2023/05/12 04:08:38;;;;;;;;;;;21.20;57.50;;;;;;5094577;28;19927;-71
2023/05/12 04:11:04;;;;;;;;;;;21.30;57.40;;;;;;5093367;28;19947;-72
2023/05/12 04:13:31;;;;;;;;;;;21.30;57.30;;;;;;5112170;28;20463;-71
2023/05/12 04:15:57;;;;;;;;;;;21.30;57.20;;;;;;5094665;28;20442;-72
2023/05/12 04:18:23;;;;;;;;;;;21.40;57.20;;;;;;5094266;28;20143;-72
2023/05/12 04:20:48;;;;;;;;;;;21.40;57.00;;;;;;5112582;28;19924;-72
2023/05/12 04:23:14;;;;;;;;;;;21.50;56.90;;;;;;5094065;28;19919;-72
2023/05/12 04:25:40;;;;;;;;;;;21.50;56.80;;;;;;5113477;28;19927;-71
2023/05/12 04:28:06;;;;;;;;;;;21.50;56.70;;;;;;5097964;28;20061;-70
2023/05/12 04:30:32;;;;;;;;;;;21.50;56.60;;;;;;5098298;28;20010;-71
2023/05/12 04:32:57;;;;;;;;;;;21.50;56.60;;;;;;5097870;28;20323;-71
2023/05/12 04:35:23;;;;;;;;;;;21.50;56.60;;;;;;5098149;28;19919;-71
2023/05/12 04:37:48;;;;;;;;;;;21.60;56.50;;;;;;5097949;28;19927;-71
2023/05/12 04:40:14;;;;;;;;;;;21.60;56.40;;;;;;5116069;28;19923;-71
2023/05/12 04:42:39;;;;;;;;;;;21.60;56.40;;;;;;5097855;28;19920;-71
2023/05/12 04:45:06;;;;;;;;;;;21.60;56.30;;;;;;5097541;28;19928;-71
2023/05/12 04:47:31;;;;;;;;;;;21.60;56.30;;;;;;5116033;28;19919;-71
2023/05/12 04:49:57;;;;;;;;;;;21.60;56.30;;;;;;5116057;28;20467;-71
2023/05/12 04:52:23;;;;;;;;;;;21.60;56.40;;;;;;5097666;28;20018;-71
2023/05/12 04:54:49;;;;;;;;;;;21.60;56.40;;;;;;5097459;28;19920;-71
2023/05/12 04:57:14;;;;;;;;;;;21.60;56.40;;;;;;5097889;28;20298;-71
2023/05/12 04:59:41;;;;;;;;;;;21.60;56.40;;;;;;5097694;28;20267;-71
2023/05/12 05:02:07;;;;;;;;;;;21.50;56.40;;;;;;5097705;28;19919;-72
2023/05/12 05:04:33;;;;;;;;;;;21.50;56.40;;;;;;5115694;28;19989;-72
2023/05/12 05:06:58;;;;;;;;;;;21.50;56.40;;;;;;5097727;28;19923;-73
2023/05/12 05:09:24;;;;;;;;;;;21.50;56.40;;;;;;5097208;28;20413;-72
2023/05/12 05:11:49;;;;;;;;;;;21.50;56.40;;;;;;5097341;28;19973;-72
2023/05/12 05:14:14;;;;;;;;;;;21.50;56.40;;;;;;5096914;28;19920;-72
2023/05/12 05:16:40;;;;;;;;;;;21.50;56.40;;;;;;5097518;28;20279;-72
2023/05/12 05:19:05;;;;;;;;;;;21.50;56.40;;;;;;5097451;28;20028;-72
2023/05/12 05:21:31;;;;;;;;;;;21.50;56.40;;;;;;5097227;28;20287;-73
2023/05/12 05:23:57;;;;;;;;;;;21.50;56.40;;;;;;5097149;28;20387;-72
2023/05/12 05:26:23;;;;;;;;;;;21.50;56.40;;;;;;5096909;28;19924;-72
2023/05/12 05:28:49;;;;;;;;;;;21.50;56.40;;;;;;5095783;28;19920;-73
2023/05/12 05:31:15;;;;;;;;;;;21.50;56.40;;;;;;5113740;28;19926;-74
2023/05/12 05:33:41;;;;;;;;;;;21.40;56.40;;;;;;5096684;28;20022;-73
2023/05/12 05:36:07;;;;;;;;;;;21.40;56.50;;;;;;5095151;28;20443;-74
2023/05/12 05:38:32;;;;;;;;;;;21.40;56.60;;;;;;5096326;28;19924;-76
2023/05/12 05:40:58;;;;;;;;;;;21.40;56.70;;;;;;5093692;28;19920;-73
2023/05/12 05:43:23;;;;;;;;;;;21.40;56.80;;;;;;5092323;28;20010;-74
2023/05/12 05:45:50;;;;;;;;;;;21.40;56.90;;;;;;5094780;28;19965;-72
2023/05/12 05:48:16;;;;;;;;;;;21.40;56.80;;;;;;5112834;28;20383;-69
2023/05/12 05:50:42;;;;;;;;;;;21.50;56.80;;;;;;5095256;28;19969;-73
2023/05/12 05:53:07;;;;;;;;;;;21.50;57.50;;;;;;5111165;28;19920;-74
2023/05/12 05:55:36;;;;;;;;;;;21.60;57.50;;;;;;5092748;28;19926;-76
2023/05/12 05:58:01;;;;;;;;;;;21.50;56.80;;;;;;5093111;28;19998;-76
2023/05/12 06:00:27;;;;;;;;;;;21.50;56.90;;;;;;5090992;28;20014;-72
2023/05/12 06:02:52;;;;;;;;;;;21.50;56.90;;;;;;5093039;28;19924;-71
2023/05/12 06:05:18;;;;;;;;;;;21.60;56.90;;;;;;5109895;28;19981;-73
2023/05/12 06:07:43;;;;;;;;;;;21.60;56.80;;;;;;5091674;28;19919;-73
2023/05/12 06:10:09;;;;;;;;;;;21.60;56.80;;;;;;5093055;28;20444;-70
2023/05/12 06:12:34;;;;;;;;;;;21.60;56.80;;;;;;5105686;28;19927;-72
2023/05/12 06:15:00;;;;;;;;;;;21.60;56.80;;;;;;5101932;27;19927;-72
2023/05/12 06:17:25;;;;;;;;;;;21.60;56.80;;;;;;5080442;28;19927;-74
2023/05/12 06:19:51;;;;;;;;;;;21.60;56.90;;;;;;5099281;28;19993;-73
2023/05/12 06:22:16;;;;;;;;;;;21.60;56.90;;;;;;5130530;27;19928;-72
2023/05/12 06:24:42;;;;;;;;;;;21.50;56.90;;;;;;5097397;28;19928;-72
2023/05/12 06:27:07;;;;;;;;;;;21.50;57.00;;;;;;5098339;28;20015;-73
2023/05/12 06:29:33;;;;;;;;;;;21.50;57.00;;;;;;5082598;28;20012;-73
2023/05/12 06:31:58;;;;;;;;;;;21.50;57.00;;;;;;5102037;28;19959;-72
2023/05/12 06:34:24;;;;;;;;;;;21.50;56.90;;;;;;5101456;28;19926;-77
2023/05/12 06:36:50;;;;;;;;;;;21.60;57.10;;;;;;5099907;28;19923;-70
2023/05/12 06:39:15;;;;;;;;;;;21.60;57.10;;;;;;5093961;27;19973;-71
2023/05/12 06:41:41;;;;;;;;;;;21.60;57.10;;;;;;5095456;28;20719;-71
2023/05/12 06:44:06;;;;;;;;;;;21.60;57.80;;;;;;5080923;28;19971;-70
2023/05/12 06:46:32;;;;;;;;;;;21.70;57.10;;;;;;5078433;28;19924;-77
2023/05/12 06:48:59;;;;;;;;;;;21.70;57.10;;;;;;5076812;28;20046;-70
2023/05/12 06:51:24;;;;;;;;;;;21.70;57.20;;;;;;5079577;28;19927;-64
2023/05/12 06:53:50;;;;;;;;;;;21.70;57.30;;;;;;5092076;28;20756;-66
2023/05/12 06:56:16;;;;;;;;;;;21.80;57.40;;;;;;5090783;28;19923;-70
2023/05/12 06:58:41;;;;;;;;;;;21.70;57.40;;;;;;5105594;27;19923;-70
2023/05/12 07:01:07;;;;;;;;;;;21.70;57.60;;;;;;5073358;28;19924;-71
2023/05/12 07:03:33;;;;;;;;;;;21.60;57.70;;;;;;5108048;27;20040;-72
2023/05/12 07:05:58;;;;;;;;;;;21.50;57.90;;;;;;5092799;28;19923;-71
2023/05/12 07:08:24;;;;;;;;;;;21.50;58.00;;;;;;5076627;28;19924;-72
2023/05/12 07:10:49;;;;;;;;;;;21.50;58.10;;;;;;5076000;28;20028;-72
2023/05/12 07:13:15;;;;;;;;;;;21.40;58.20;;;;;;5073109;28;20436;-72
2023/05/12 07:15:40;;;;;;;;;;;21.40;58.20;;;;;;5090205;27;19924;-71
2023/05/12 07:18:06;;;;;;;;;;;21.40;58.30;;;;;;5073331;28;19973;-72
2023/05/12 07:20:31;;;;;;;;;;;21.30;58.30;;;;;;5073721;28;19924;-71
2023/05/12 07:22:57;;;;;;;;;;;21.30;58.30;;;;;;5090960;28;19923;-71
2023/05/12 07:25:23;;;;;;;;;;;21.30;58.40;;;;;;5077397;28;20479;-72
2023/05/12 07:27:49;;;;;;;;;;;21.30;58.40;;;;;;5073322;28;19923;-73
2023/05/12 07:30:15;;;;;;;;;;;21.30;58.50;;;;;;5074474;28;20482;-72
2023/05/12 07:32:41;;;;;;;;;;;21.20;58.40;;;;;;5092857;28;20014;-71
2023/05/12 07:35:08;;;;;;;;;;;21.20;58.40;;;;;;5081517;28;20008;-72
2023/05/12 07:37:34;;;;;;;;;;;21.20;58.50;;;;;;5067232;28;20788;-73
2023/05/12 07:39:59;;;;;;;;;;;21.20;58.40;;;;;;5084729;28;19980;-71
2023/05/12 07:42:25;;;;;;;;;;;21.20;58.50;;;;;;5069938;28;19981;-72
2023/05/12 07:44:50;;;;;;;;;;;21.10;58.50;;;;;;5089648;28;19986;-70
2023/05/12 07:47:15;;;;;;;;;;;21.20;58.60;;;;;;5089783;28;20464;-69
2023/05/12 07:49:41;;;;;;;;;;;21.10;58.60;;;;;;5071039;28;19924;-72
2023/05/12 07:52:06;;;;;;;;;;;21.20;58.70;;;;;;5092179;28;20598;-72
2023/05/12 07:54:32;;;;;;;;;;;21.20;58.70;;;;;;5071196;28;19932;-70
2023/05/12 07:56:57;;;;;;;;;;;21.10;58.70;;;;;;5090040;28;19923;-69
2023/05/12 07:59:23;;;;;;;;;;;21.10;59.50;;;;;;5066480;28;20677;-70
2023/05/12 08:01:48;;;;;;;;;;;21.10;58.70;;;;;;5110368;27;19924;-71
2023/05/12 08:04:14;;;;;;;;;;;21.10;58.80;;;;;;5093469;28;19932;-69
2023/05/12 08:06:39;;;;;;;;;;;21.10;58.80;;;;;;5076129;28;20722;-69
2023/05/12 08:09:05;;;;;;;;;;;21.10;58.80;;;;;;5076044;28;20018;-71
2023/05/12 08:11:30;;;;;;;;;;;21.10;58.80;;;;;;5097227;28;20404;-71
2023/05/12 08:13:56;;;;;;;;;;;21.10;58.80;;;;;;5094159;28;20020;-71
2023/05/12 08:16:22;;;;;;;;;;;21.10;58.80;;;;;;5077554;28;19984;-71
2023/05/12 08:18:47;;;;;;;;;;;21.10;58.80;;;;;;5077659;28;19923;-71
2023/05/12 08:21:13;;;;;;;;;;;21.10;58.90;;;;;;5076150;28;19924;-71
2023/05/12 08:23:38;;;;;;;;;;;21.10;58.90;;;;;;5078424;28;19927;-70
2023/05/12 08:26:03;;;;;;;;;;;21.10;58.80;;;;;;5075684;28;19921;-71
2023/05/12 08:28:30;;;;;;;;;;;21.10;58.90;;;;;;5075987;28;20451;-71
2023/05/12 08:30:56;;;;;;;;;;;21.10;58.80;;;;;;5084617;28;19924;-71
2023/05/12 08:33:21;;;;;;;;;;;21.10;58.90;;;;;;5078552;28;20375;-71
2023/05/12 08:35:47;;;;;;;;;;;21.10;58.90;;;;;;5096086;28;19924;-71
2023/05/12 08:38:12;;;;;;;;;;;21.10;58.90;;;;;;5076765;28;20403;-71
2023/05/12 08:40:52;;;;;;;;;;;21.10;58.90;;;;;;5096521;28;19924;-71
2023/05/12 08:43:29;;;;;;;;;;;21.10;58.90;;;;;;5095566;28;19934;-70
2023/05/12 08:45:58;;;;;;;;;;;21.10;59.70;;;;;;5077287;28;20314;-70
2023/05/12 08:48:25;;;;;;;;;;;21.00;58.90;;;;;;5076574;28;19950;-71
2023/05/12 08:50:52;;;;;;;;;;;21.10;59.00;;;;;;5078590;28;20061;-70
2023/05/12 08:53:19;;;;;;;;;;;21.00;59.90;;;;;;5092887;28;19920;-67
2023/05/12 08:55:45;;;;;;;;;;;21.10;59.30;;;;;;5068362;28;19927;-70
2023/05/12 08:58:11;;;;;;;;;;;21.00;59.40;;;;;;5092223;28;19923;-71
2023/05/12 09:00:37;;;;;;;;;;;21.10;59.70;;;;;;5078515;27;19926;-72
2023/05/12 09:03:04;;;;;;;;;;;21.10;59.90;;;;;;5078478;28;19935;-73
2023/05/12 09:05:30;;;;;;;;;;;21.10;60.00;;;;;;5090842;27;20460;-73
2023/05/12 09:08:00;;;;;;;;;;;21.20;59.90;;;;;;5093669;27;19928;-73
2023/05/12 09:10:26;;;;;;;;;;;21.20;59.90;;;;;;5084389;28;19931;-73
2023/05/12 09:12:54;;;;;;;;;;;21.20;60.00;;;;;;5095657;27;20270;-72
2023/05/12 09:15:24;;;;;;;;;;;21.20;60.00;;;;;;5093404;27;19924;-72
2023/05/12 09:17:50;;;;;;;;;;;21.30;60.10;;;;;;5075979;28;19980;-71
2023/05/12 09:20:16;;;;;;;;;;;21.30;60.10;;;;;;5079247;28;19927;-69
2023/05/12 09:22:41;;;;;;;;;;;21.30;60.30;;;;;;5084035;28;19924;-73
2023/05/12 09:25:22;;;;;;;;;;;21.30;60.40;;;;;;5076392;28;19920;-70
2023/05/12 09:27:48;;;;;;;;;;;21.30;60.60;;;;;;5095373;28;20346;-70
2023/05/12 09:30:14;;;;;;;;;;;21.20;60.80;;;;;;5077309;28;19956;-69
2023/05/12 09:32:40;;;;;;;;;;;21.20;60.70;;;;;;5073431;28;19928;-70
2023/05/12 09:35:07;;;;;;;;;;;21.30;61.00;;;;;;5091521;28;19928;-71
2023/05/12 09:37:33;;;;;;;;;;;21.30;61.10;;;;;;5096038;28;20256;-71
2023/05/12 09:40:00;;;;;;;;;;;21.30;61.10;;;;;;5092062;28;20413;-67
2023/05/12 09:42:28;;;;;;;;;;;21.20;61.20;;;;;;5075337;28;20425;-70
2023/05/12 09:44:57;;;;;;;;;;;21.20;61.40;;;;;;5075660;28;19927;-71
2023/05/12 09:47:25;;;;;;;;;;;21.30;62.00;;;;;;5107259;27;19935;-67
2023/05/12 09:49:51;;;;;;;;;;;21.30;62.50;;;;;;5070568;28;19951;-67
2023/05/12 09:52:19;;;;;;;;;;;21.30;62.70;;;;;;5071478;28;19981;-69
2023/05/12 09:54:46;;;;;;;;;;;21.30;62.50;;;;;;5088716;28;19945;-69
2023/05/12 09:57:14;;;;;;;;;;;21.30;62.60;;;;;;5085252;28;19935;-68
2023/05/12 09:59:42;;;;;;;;;;;21.30;62.60;;;;;;5075662;28;20419;-69
2023/05/12 10:02:08;;;;;;;;;;;21.30;63.00;;;;;;5072751;28;20015;-68
2023/05/12 10:04:38;;;;;;;;;;;21.30;63.30;;;;;;5076654;28;20066;-68
2023/05/12 10:07:07;;;;;;;;;;;21.30;63.30;;;;;;5081271;28;19931;-71
2023/05/12 10:09:34;;;;;;;;;;;21.30;63.40;;;;;;5077717;28;19924;-68
2023/05/12 10:12:01;;;;;;;;;;;21.30;63.90;;;;;;5087469;28;20165;-69
2023/05/12 10:14:27;;;;;;;;;;;21.20;63.70;;;;;;5086952;28;19928;-67
2023/05/12 10:16:53;;;;;;;;;;;21.20;63.30;;;;;;5090598;28;19959;-69
2023/05/12 10:19:18;;;;;;;;;;;21.20;63.80;;;;;;5073705;28;19931;-68
2023/05/12 10:21:45;;;;;;;;;;;21.20;63.70;;;;;;5077892;28;19924;-70
2023/05/12 10:24:13;;;;;;;;;;;21.10;63.80;;;;;;5078488;28;19931;-70
2023/05/12 10:26:39;;;;;;;;;;;21.20;64.00;;;;;;5091806;28;19947;-68
2023/05/12 10:29:05;;;;;;;;;;;21.10;64.00;;;;;;5094803;28;20561;-67
2023/05/12 10:31:31;;;;;;;;;;;21.10;64.30;;;;;;5092156;28;19942;-67
2023/05/12 10:33:57;;;;;;;;;;;21.10;64.20;;;;;;5075748;28;19920;-67
2023/05/12 10:36:23;;;;;;;;;;;21.10;64.30;;;;;;5109176;27;19924;-66
2023/05/12 10:38:49;;;;;;;;;;;21.10;64.30;;;;;;5095012;28;19930;-66
2023/05/12 10:41:16;;;;;;;;;;;21.10;64.40;;;;;;5076481;28;20542;-66
2023/05/12 10:43:43;;;;;;;;;;;21.10;64.50;;;;;;5075438;28;19928;-66
2023/05/12 10:54:23;;;;;;;;;;;20.90;65.40;;;;;;5068925;28;20421;-72
2023/05/12 10:56:49;;;;;;;;;;;20.90;65.40;;;;;;5059414;28;19925;-70
2023/05/12 10:59:18;;;;;;;;;;;20.90;65.60;;;;;;5059995;28;20368;-70
2023/05/12 11:02:04;;;;;;;;;;;20.90;65.70;;;;;;5060867;28;19925;-71
2023/05/12 11:04:46;;;;;;;;;;;20.90;65.80;;;;;;5054884;28;22173;-71
2023/05/12 11:07:12;;;;;;;;;;;20.90;65.70;;;;;;5057139;28;19924;-69
2023/05/12 11:09:39;;;;;;;;;;;20.80;65.70;;;;;;5053920;28;19924;-69
2023/05/12 11:12:05;;;;;;;;;;;20.80;65.70;;;;;;5062180;28;20028;-71
2023/05/12 11:14:31;;;;;;;;;;;20.80;65.70;;;;;;5060444;28;20750;-69
2023/05/12 11:16:56;;;;;;;;;;;20.80;65.70;;;;;;5060185;28;19967;-69
2023/05/12 11:19:22;;;;;;;;;;;20.80;65.80;;;;;;5059540;28;19925;-67
2023/05/12 11:21:47;;;;;;;;;;;20.80;65.70;;;;;;5059754;28;20055;-69
2023/05/12 11:24:15;;;;;;;;;;;20.80;65.70;;;;;;5061645;28;20365;-71
2023/05/12 11:26:40;;;;;;;;;;;20.80;65.80;;;;;;5055675;28;20451;-71
2023/05/12 11:29:06;;;;;;;;;;;20.80;65.80;;;;;;5049501;28;20022;-69
2023/05/12 11:31:31;;;;;;;;;;;20.80;65.70;;;;;;5075687;28;19925;-70
2023/05/12 11:34:06;;;;;;;;;;;20.80;65.90;;;;;;5052649;28;19928;-72
2023/05/12 11:36:35;;;;;;;;;;;20.80;66.30;;;;;;5060801;28;19924;-71
2023/05/12 11:39:02;;;;;;;;;;;20.90;66.40;;;;;;5055571;28;20467;-76
2023/05/12 11:41:27;;;;;;;;;;;20.90;66.40;;;;;;5054365;28;19940;-76
2023/05/12 11:43:53;;;;;;;;;;;20.90;66.50;;;;;;5057301;28;20508;-72
2023/05/12 11:46:26;;;;;;;;;;;20.90;66.30;;;;;;5055252;28;20376;-72
2023/05/12 11:48:55;;;;;;;;;;;20.90;66.30;;;;;;5057064;28;19946;-71
2023/05/12 11:51:21;;;;;;;;;;;21.00;66.40;;;;;;5057273;28;19925;-73
2023/05/12 11:53:46;;;;;;;;;;;21.00;66.60;;;;;;5053137;28;20793;-73
2023/05/12 11:56:27;;;;;;;;;;;21.10;66.60;;;;;;5050879;28;19931;-73
2023/05/12 11:58:53;;;;;;;;;;;21.10;67.30;;;;;;5058142;28;19932;-71
2023/05/12 12:01:19;;;;;;;;;;;21.20;66.40;;;;;;5055606;28;19982;-72
2023/05/12 12:03:47;;;;;;;;;;;21.20;66.30;;;;;;5052458;28;20355;-75
2023/05/12 12:06:12;;;;;;;;;;;21.30;66.30;;;;;;5046150;28;19932;-68
2023/05/12 12:08:47;;;;;;;;;;;21.30;66.20;;;;;;5043411;28;19982;-70
2023/05/12 12:11:13;;;;;;;;;;;21.30;66.10;;;;;;5044100;28;19960;-72
2023/05/12 12:13:46;;;;;;;;;;;21.40;65.90;;;;;;5047261;28;19936;-66
2023/05/12 12:16:11;;;;;;;;;;;21.40;65.50;;;;;;5045288;28;19921;-67
2023/05/12 12:18:36;;;;;;;;;;;21.40;65.30;;;;;;5044446;28;19971;-67
2023/05/12 12:21:02;;;;;;;;;;;21.30;65.30;;;;;;5046975;28;20619;-68
2023/05/12 12:23:28;;;;;;;;;;;21.30;65.50;;;;;;5044790;28;19920;-66
2023/05/12 12:25:53;;;;;;;;;;;21.30;65.40;;;;;;5046781;28;19951;-69
2023/05/12 12:28:19;;;;;;;;;;;21.20;65.60;;;;;;5046635;28;19925;-67
2023/05/12 12:30:45;;;;;;;;;;;21.20;65.70;;;;;;5046079;28;19924;-66
2023/05/12 12:33:10;;;;;;;;;;;21.20;66.00;;;;;;5045877;28;19928;-74
2023/05/12 12:35:36;;;;;;;;;;;21.10;66.00;;;;;;5057131;28;19927;-68
2023/05/12 12:38:01;;;;;;;;;;;21.10;66.10;;;;;;5042957;28;19999;-67
2023/05/12 12:40:27;;;;;;;;;;;21.10;66.10;;;;;;5048394;28;19943;-68
2023/05/12 12:42:52;;;;;;;;;;;21.20;66.50;;;;;;5042704;28;19946;-68
2023/05/12 12:45:18;;;;;;;;;;;21.20;66.40;;;;;;5056121;28;19921;-67
2023/05/12 12:47:43;;;;;;;;;;;21.20;66.60;;;;;;5042415;28;19981;-66
2023/05/12 12:50:09;;;;;;;;;;;21.10;66.40;;;;;;5042715;28;19982;-69
2023/05/12 12:52:36;;;;;;;;;;;21.10;66.50;;;;;;5044207;28;20012;-67
2023/05/12 12:55:02;;;;;;;;;;;21.10;66.40;;;;;;5044237;28;19928;-68
2023/05/12 12:57:28;;;;;;;;;;;21.10;66.40;;;;;;5043557;28;19921;-68
2023/05/12 12:59:53;;;;;;;;;;;21.10;66.60;;;;;;5041499;28;19921;-68
2023/05/12 13:02:19;;;;;;;;;;;21.10;66.60;;;;;;5061121;28;20296;-68
2023/05/12 13:04:45;;;;;;;;;;;21.10;66.40;;;;;;5037279;28;19920;-68
2023/05/12 13:07:10;;;;;;;;;;;21.10;66.40;;;;;;5042283;28;19924;-69
2023/05/12 13:09:36;;;;;;;;;;;21.20;66.60;;;;;;5043945;28;20514;-69
2023/05/12 13:12:01;;;;;;;;;;;21.20;66.40;;;;;;5061299;28;20680;-69
2023/05/12 13:14:27;;;;;;;;;;;21.20;66.30;;;;;;5045686;28;19925;-69
2023/05/12 13:16:52;;;;;;;;;;;21.20;66.20;;;;;;5056177;28;19921;-65
2023/05/12 13:19:18;;;;;;;;;;;21.20;66.00;;;;;;5043312;28;19920;-69
2023/05/12 13:21:43;;;;;;;;;;;21.20;65.90;;;;;;5057380;28;20004;-69
2023/05/12 13:24:09;;;;;;;;;;;21.30;65.80;;;;;;5037698;28;19920;-70
2023/05/12 13:26:34;;;;;;;;;;;21.30;65.60;;;;;;5039391;28;20431;-70
2023/05/12 13:29:00;;;;;;;;;;;21.30;65.50;;;;;;5045866;28;19936;-69
2023/05/12 13:31:25;;;;;;;;;;;21.30;65.40;;;;;;5045011;28;20804;-69
2023/05/12 13:33:51;;;;;;;;;;;21.20;65.10;;;;;;5045701;28;19929;-69
2023/05/12 13:36:16;;;;;;;;;;;21.20;65.00;;;;;;5045262;28;19932;-69
2023/05/12 13:38:42;;;;;;;;;;;21.30;64.90;;;;;;5063727;28;19960;-69
2023/05/12 13:41:07;;;;;;;;;;;21.30;64.70;;;;;;5045837;28;19956;-66
2023/05/12 13:43:33;;;;;;;;;;;21.20;64.50;;;;;;5039706;28;19921;-69
2023/05/12 13:45:59;;;;;;;;;;;21.30;64.50;;;;;;5043599;28;20461;-68
2023/05/12 13:48:24;;;;;;;;;;;21.20;64.30;;;;;;5056302;28;19956;-68
2023/05/12 13:50:50;;;;;;;;;;;21.20;64.20;;;;;;5043943;28;19927;-69
2023/05/12 13:53:16;;;;;;;;;;;21.20;64.90;;;;;;5046703;28;19960;-68
2023/05/12 13:55:43;;;;;;;;;;;21.30;64.10;;;;;;5039152;28;19929;-66
2023/05/12 13:58:08;;;;;;;;;;;21.30;64.00;;;;;;5037183;28;19924;-66
2023/05/12 14:00:34;;;;;;;;;;;21.30;64.00;;;;;;5043382;28;19925;-66
2023/05/12 14:03:00;;;;;;;;;;;21.30;63.80;;;;;;5041653;28;19924;-68
2023/05/12 14:05:26;;;;;;;;;;;21.30;63.80;;;;;;5038575;28;19921;-68
2023/05/12 14:07:51;;;;;;;;;;;21.30;64.00;;;;;;5042400;28;19931;-68
2023/05/12 14:10:17;;;;;;;;;;;21.30;64.10;;;;;;5059644;28;20020;-68
2023/05/12 14:12:43;;;;;;;;;;;21.30;64.00;;;;;;5039109;28;19929;-69
2023/05/12 14:15:10;;;;;;;;;;;21.30;64.20;;;;;;5042280;28;20038;-69
2023/05/12 14:17:35;;;;;;;;;;;21.40;64.20;;;;;;5040186;28;20410;-69